sensor_id;sensor_type;location;lat;lon;timestamp;P1;durP1;ratioP1;P2;durP2;ratioP2
7211;SDS011;3647;48.792;9.802;2023-03-30T00:02:27;9.20;;;7.00;;
7211;SDS011;3647;48.792;9.802;2023-03-30T00:04:55;9.67;;;6.50;;
7211;SDS011;3647;48.792;9.802;2023-03-30T00:07:28;8.97;;;6.47;;
7211;SDS011;3647;48.792;9.802;2023-03-30T00:09:56;11.27;;;6.93;;
7211;SDS011;3647;48.792;9.802;2023-03-30T00:12:26;7.90;;;6.67;;
7211;SDS011;3647;48.792;9.802;2023-03-30T00:14:53;11.27;;;7.10;;
7211;SDS011;3647;48.792;9.802;2023-03-30T00:17:21;9.67;;;6.80;;
7211;SDS011;3647;48.792;9.802;2023-03-30T00:19:48;9.50;;;6.53;;
7211;SDS011;3647;48.792;9.802;2023-03-30T00:22:14;8.13;;;5.90;;
7211;SDS011;3647;48.792;9.802;2023-03-30T00:24:41;7.90;;;6.07;;
7211;SDS011;3647;48.792;9.802;2023-03-30T00:27:09;12.93;;;6.33;;
7211;SDS011;3647;48.792;9.802;2023-03-30T00:29:36;13.07;;;6.20;;
7211;SDS011;3647;48.792;9.802;2023-03-30T00:32:03;9.87;;;6.87;;
7211;SDS011;3647;48.792;9.802;2023-03-30T00:34:30;7.17;;;6.07;;
7211;SDS011;3647;48.792;9.802;2023-03-30T00:36:56;8.57;;;6.63;;
7211;SDS011;3647;48.792;9.802;2023-03-30T00:39:23;7.33;;;5.57;;
7211;SDS011;3647;48.792;9.802;2023-03-30T00:41:50;10.37;;;7.07;;
7211;SDS011;3647;48.792;9.802;2023-03-30T00:47:22;8.83;;;6.13;;
7211;SDS011;3647;48.792;9.802;2023-03-30T00:49:50;10.27;;;6.67;;
7211;SDS011;3647;48.792;9.802;2023-03-30T00:52:17;7.57;;;6.20;;
7211;SDS011;3647;48.792;9.802;2023-03-30T00:54:49;8.17;;;6.07;;
7211;SDS011;3647;48.792;9.802;2023-03-30T00:57:18;10.13;;;5.83;;
7211;SDS011;3647;48.792;9.802;2023-03-30T00:59:47;8.67;;;5.97;;
7211;SDS011;3647;48.792;9.802;2023-03-30T01:02:16;7.30;;;5.93;;
7211;SDS011;3647;48.792;9.802;2023-03-30T01:04:44;11.30;;;6.43;;
7211;SDS011;3647;48.792;9.802;2023-03-30T01:07:12;6.47;;;5.80;;
7211;SDS011;3647;48.792;9.802;2023-03-30T01:09:39;12.43;;;7.23;;
7211;SDS011;3647;48.792;9.802;2023-03-30T01:12:07;11.43;;;6.30;;
7211;SDS011;3647;48.792;9.802;2023-03-30T01:14:35;10.77;;;6.20;;
7211;SDS011;3647;48.792;9.802;2023-03-30T01:17:05;9.60;;;6.73;;
7211;SDS011;3647;48.792;9.802;2023-03-30T01:19:49;9.77;;;6.43;;
7211;SDS011;3647;48.792;9.802;2023-03-30T01:22:49;9.83;;;5.90;;
7211;SDS011;3647;48.792;9.802;2023-03-30T01:25:33;10.43;;;6.30;;
7211;SDS011;3647;48.792;9.802;2023-03-30T01:28:22;12.10;;;7.53;;
7211;SDS011;3647;48.792;9.802;2023-03-30T01:31:03;11.70;;;6.60;;
7211;SDS011;3647;48.792;9.802;2023-03-30T01:33:46;9.83;;;5.93;;
7211;SDS011;3647;48.792;9.802;2023-03-30T01:36:44;10.27;;;5.53;;
7211;SDS011;3647;48.792;9.802;2023-03-30T01:39:36;8.00;;;6.07;;
7211;SDS011;3647;48.792;9.802;2023-03-30T01:42:11;10.73;;;5.77;;
7211;SDS011;3647;48.792;9.802;2023-03-30T01:44:45;8.73;;;6.40;;
7211;SDS011;3647;48.792;9.802;2023-03-30T01:47:21;13.50;;;5.73;;
7211;SDS011;3647;48.792;9.802;2023-03-30T01:49:54;7.77;;;5.30;;
7211;SDS011;3647;48.792;9.802;2023-03-30T01:52:24;9.10;;;6.10;;
7211;SDS011;3647;48.792;9.802;2023-03-30T01:54:57;9.73;;;5.60;;
7211;SDS011;3647;48.792;9.802;2023-03-30T01:57:29;9.43;;;6.00;;
7211;SDS011;3647;48.792;9.802;2023-03-30T02:00:02;8.70;;;5.77;;
7211;SDS011;3647;48.792;9.802;2023-03-30T02:02:38;9.10;;;6.03;;
7211;SDS011;3647;48.792;9.802;2023-03-30T02:05:08;9.10;;;6.27;;
7211;SDS011;3647;48.792;9.802;2023-03-30T02:07:41;11.43;;;6.33;;
7211;SDS011;3647;48.792;9.802;2023-03-30T02:10:12;9.87;;;6.30;;
7211;SDS011;3647;48.792;9.802;2023-03-30T02:12:41;8.60;;;5.60;;
7211;SDS011;3647;48.792;9.802;2023-03-30T02:15:09;12.93;;;5.13;;
7211;SDS011;3647;48.792;9.802;2023-03-30T02:17:39;11.10;;;5.70;;
7211;SDS011;3647;48.792;9.802;2023-03-30T02:20:11;10.80;;;7.07;;
7211;SDS011;3647;48.792;9.802;2023-03-30T02:22:40;8.43;;;6.13;;
7211;SDS011;3647;48.792;9.802;2023-03-30T02:25:07;9.17;;;6.37;;
7211;SDS011;3647;48.792;9.802;2023-03-30T02:27:36;10.30;;;5.77;;
7211;SDS011;3647;48.792;9.802;2023-03-30T02:30:04;11.07;;;6.80;;
7211;SDS011;3647;48.792;9.802;2023-03-30T02:32:43;8.40;;;5.93;;
7211;SDS011;3647;48.792;9.802;2023-03-30T02:35:17;14.40;;;7.30;;
7211;SDS011;3647;48.792;9.802;2023-03-30T02:37:59;9.83;;;6.40;;
7211;SDS011;3647;48.792;9.802;2023-03-30T02:40:42;7.07;;;5.70;;
7211;SDS011;3647;48.792;9.802;2023-03-30T02:43:32;11.70;;;7.07;;
7211;SDS011;3647;48.792;9.802;2023-03-30T02:46:10;12.80;;;7.40;;
7211;SDS011;3647;48.792;9.802;2023-03-30T02:48:50;12.03;;;7.70;;
7211;SDS011;3647;48.792;9.802;2023-03-30T02:51:27;12.67;;;6.03;;
7211;SDS011;3647;48.792;9.802;2023-03-30T02:54:06;16.90;;;7.30;;
7211;SDS011;3647;48.792;9.802;2023-03-30T02:56:43;10.30;;;6.20;;
7211;SDS011;3647;48.792;9.802;2023-03-30T02:59:15;10.47;;;6.30;;
7211;SDS011;3647;48.792;9.802;2023-03-30T03:01:45;12.70;;;6.40;;
7211;SDS011;3647;48.792;9.802;2023-03-30T03:04:18;10.17;;;6.50;;
7211;SDS011;3647;48.792;9.802;2023-03-30T03:06:47;13.37;;;6.47;;
7211;SDS011;3647;48.792;9.802;2023-03-30T03:09:17;11.20;;;6.63;;
7211;SDS011;3647;48.792;9.802;2023-03-30T03:11:44;14.47;;;6.73;;
7211;SDS011;3647;48.792;9.802;2023-03-30T03:14:11;7.47;;;6.17;;
7211;SDS011;3647;48.792;9.802;2023-03-30T03:16:39;9.40;;;5.93;;
7211;SDS011;3647;48.792;9.802;2023-03-30T03:19:06;11.60;;;6.37;;
7211;SDS011;3647;48.792;9.802;2023-03-30T03:21:33;7.63;;;5.63;;
7211;SDS011;3647;48.792;9.802;2023-03-30T03:24:00;10.63;;;5.90;;
7211;SDS011;3647;48.792;9.802;2023-03-30T03:26:28;10.83;;;6.37;;
7211;SDS011;3647;48.792;9.802;2023-03-30T03:28:55;9.47;;;5.40;;
7211;SDS011;3647;48.792;9.802;2023-03-30T03:31:23;15.33;;;6.73;;
7211;SDS011;3647;48.792;9.802;2023-03-30T03:33:51;13.73;;;6.73;;
7211;SDS011;3647;48.792;9.802;2023-03-30T03:36:17;9.73;;;6.67;;
7211;SDS011;3647;48.792;9.802;2023-03-30T03:38:44;13.73;;;5.40;;
7211;SDS011;3647;48.792;9.802;2023-03-30T03:41:11;10.87;;;6.00;;
7211;SDS011;3647;48.792;9.802;2023-03-30T03:43:38;14.10;;;5.87;;
7211;SDS011;3647;48.792;9.802;2023-03-30T03:46:04;8.80;;;5.03;;
7211;SDS011;3647;48.792;9.802;2023-03-30T03:48:32;14.90;;;5.30;;
7211;SDS011;3647;48.792;9.802;2023-03-30T03:50:59;8.63;;;5.60;;
7211;SDS011;3647;48.792;9.802;2023-03-30T03:53:26;12.03;;;6.60;;
7211;SDS011;3647;48.792;9.802;2023-03-30T03:55:53;10.93;;;5.60;;
7211;SDS011;3647;48.792;9.802;2023-03-30T03:58:20;10.43;;;5.63;;
7211;SDS011;3647;48.792;9.802;2023-03-30T04:00:48;8.60;;;5.40;;
7211;SDS011;3647;48.792;9.802;2023-03-30T04:03:15;15.40;;;6.60;;
7211;SDS011;3647;48.792;9.802;2023-03-30T04:05:43;11.73;;;6.43;;
7211;SDS011;3647;48.792;9.802;2023-03-30T04:08:10;9.67;;;5.93;;
7211;SDS011;3647;48.792;9.802;2023-03-30T04:10:37;12.80;;;6.23;;
7211;SDS011;3647;48.792;9.802;2023-03-30T04:13:05;11.13;;;5.70;;
7211;SDS011;3647;48.792;9.802;2023-03-30T04:15:32;12.30;;;6.47;;
7211;SDS011;3647;48.792;9.802;2023-03-30T04:17:59;14.27;;;6.93;;
7211;SDS011;3647;48.792;9.802;2023-03-30T04:20:26;12.17;;;6.20;;
7211;SDS011;3647;48.792;9.802;2023-03-30T04:22:55;9.70;;;5.90;;
7211;SDS011;3647;48.792;9.802;2023-03-30T04:25:25;17.97;;;5.57;;
7211;SDS011;3647;48.792;9.802;2023-03-30T04:27:53;9.33;;;6.13;;
7211;SDS011;3647;48.792;9.802;2023-03-30T04:30:20;10.67;;;6.67;;
7211;SDS011;3647;48.792;9.802;2023-03-30T04:32:48;11.93;;;6.10;;
7211;SDS011;3647;48.792;9.802;2023-03-30T04:35:27;12.00;;;5.30;;
7211;SDS011;3647;48.792;9.802;2023-03-30T04:37:56;16.67;;;5.90;;
7211;SDS011;3647;48.792;9.802;2023-03-30T04:40:24;15.43;;;5.97;;
7211;SDS011;3647;48.792;9.802;2023-03-30T04:42:51;12.87;;;6.53;;
7211;SDS011;3647;48.792;9.802;2023-03-30T04:45:18;12.43;;;6.40;;
7211;SDS011;3647;48.792;9.802;2023-03-30T04:47:45;14.00;;;6.43;;
7211;SDS011;3647;48.792;9.802;2023-03-30T04:50:12;10.03;;;5.87;;
7211;SDS011;3647;48.792;9.802;2023-03-30T04:52:39;14.03;;;6.40;;
7211;SDS011;3647;48.792;9.802;2023-03-30T04:55:08;12.13;;;6.83;;
7211;SDS011;3647;48.792;9.802;2023-03-30T04:57:35;12.50;;;5.43;;
7211;SDS011;3647;48.792;9.802;2023-03-30T10:37:21;7.70;;;3.40;;
7211;SDS011;3647;48.792;9.802;2023-03-30T10:39:54;6.10;;;3.20;;
7211;SDS011;3647;48.792;9.802;2023-03-30T10:42:23;5.87;;;3.23;;
7211;SDS011;3647;48.792;9.802;2023-03-30T10:44:53;8.03;;;3.57;;
7211;SDS011;3647;48.792;9.802;2023-03-30T10:50:22;8.97;;;3.33;;
7211;SDS011;3647;48.792;9.802;2023-03-30T10:52:59;9.37;;;4.40;;
7211;SDS011;3647;48.792;9.802;2023-03-30T10:55:37;7.73;;;3.50;;
7211;SDS011;3647;48.792;9.802;2023-03-30T10:58:11;7.33;;;4.67;;
7211;SDS011;3647;48.792;9.802;2023-03-30T11:00:49;5.00;;;3.10;;
7211;SDS011;3647;48.792;9.802;2023-03-30T11:03:26;12.73;;;4.20;;
7211;SDS011;3647;48.792;9.802;2023-03-30T11:05:56;9.73;;;3.67;;
7211;SDS011;3647;48.792;9.802;2023-03-30T11:08:30;7.40;;;3.43;;
7211;SDS011;3647;48.792;9.802;2023-03-30T11:11:00;6.47;;;3.17;;
7211;SDS011;3647;48.792;9.802;2023-03-30T11:13:30;4.87;;;3.20;;
7211;SDS011;3647;48.792;9.802;2023-03-30T11:16:01;6.87;;;3.13;;
7211;SDS011;3647;48.792;9.802;2023-03-30T11:18:34;6.27;;;2.80;;
7211;SDS011;3647;48.792;9.802;2023-03-30T11:21:07;10.27;;;3.30;;
7211;SDS011;3647;48.792;9.802;2023-03-30T11:23:43;5.80;;;3.20;;
7211;SDS011;3647;48.792;9.802;2023-03-30T11:26:17;6.40;;;3.37;;
7211;SDS011;3647;48.792;9.802;2023-03-30T11:28:50;6.30;;;3.47;;
7211;SDS011;3647;48.792;9.802;2023-03-30T11:31:34;5.77;;;3.70;;
7211;SDS011;3647;48.792;9.802;2023-03-30T11:34:12;6.87;;;2.83;;
7211;SDS011;3647;48.792;9.802;2023-03-30T11:36:46;7.57;;;3.60;;
7211;SDS011;3647;48.792;9.802;2023-03-30T11:39:17;5.97;;;3.00;;
7211;SDS011;3647;48.792;9.802;2023-03-30T11:41:50;7.10;;;4.07;;
7211;SDS011;3647;48.792;9.802;2023-03-30T11:44:22;5.10;;;2.90;;
7211;SDS011;3647;48.792;9.802;2023-03-30T11:46:50;8.77;;;3.70;;
7211;SDS011;3647;48.792;9.802;2023-03-30T11:49:24;9.70;;;3.37;;
7211;SDS011;3647;48.792;9.802;2023-03-30T11:52:06;4.93;;;3.30;;
7211;SDS011;3647;48.792;9.802;2023-03-30T11:54:54;8.30;;;3.40;;
7211;SDS011;3647;48.792;9.802;2023-03-30T11:57:46;6.13;;;3.93;;
7211;SDS011;3647;48.792;9.802;2023-03-30T12:00:24;9.03;;;3.80;;
7211;SDS011;3647;48.792;9.802;2023-03-30T12:02:58;8.73;;;3.33;;
7211;SDS011;3647;48.792;9.802;2023-03-30T12:05:34;8.03;;;4.50;;
7211;SDS011;3647;48.792;9.802;2023-03-30T12:08:06;9.10;;;4.40;;
7211;SDS011;3647;48.792;9.802;2023-03-30T12:10:46;8.70;;;4.00;;
7211;SDS011;3647;48.792;9.802;2023-03-30T12:13:20;10.43;;;3.40;;
7211;SDS011;3647;48.792;9.802;2023-03-30T12:15:47;6.87;;;3.70;;
7211;SDS011;3647;48.792;9.802;2023-03-30T12:18:24;6.60;;;4.03;;
7211;SDS011;3647;48.792;9.802;2023-03-30T12:21:00;5.33;;;3.77;;
7211;SDS011;3647;48.792;9.802;2023-03-30T12:23:53;11.23;;;4.07;;
7211;SDS011;3647;48.792;9.802;2023-03-30T12:26:28;8.83;;;4.17;;
7211;SDS011;3647;48.792;9.802;2023-03-30T12:28:59;10.20;;;4.50;;
7211;SDS011;3647;48.792;9.802;2023-03-30T12:31:48;6.30;;;3.93;;
7211;SDS011;3647;48.792;9.802;2023-03-30T12:34:30;8.53;;;4.53;;
7211;SDS011;3647;48.792;9.802;2023-03-30T12:37:03;6.20;;;3.77;;
7211;SDS011;3647;48.792;9.802;2023-03-30T12:39:35;6.97;;;4.47;;
7211;SDS011;3647;48.792;9.802;2023-03-30T12:42:14;7.13;;;3.93;;
7211;SDS011;3647;48.792;9.802;2023-03-30T12:44:54;4.73;;;3.80;;
7211;SDS011;3647;48.792;9.802;2023-03-30T12:47:43;6.77;;;3.63;;
7211;SDS011;3647;48.792;9.802;2023-03-30T12:50:28;6.83;;;3.97;;
7211;SDS011;3647;48.792;9.802;2023-03-30T12:53:06;6.43;;;3.73;;
7211;SDS011;3647;48.792;9.802;2023-03-30T12:55:50;6.03;;;3.97;;
7211;SDS011;3647;48.792;9.802;2023-03-30T12:58:29;8.47;;;3.60;;
7211;SDS011;3647;48.792;9.802;2023-03-30T13:01:22;5.77;;;3.20;;
7211;SDS011;3647;48.792;9.802;2023-03-30T13:04:17;7.83;;;3.40;;
7211;SDS011;3647;48.792;9.802;2023-03-30T13:06:47;4.70;;;3.33;;
7211;SDS011;3647;48.792;9.802;2023-03-30T13:09:34;6.60;;;3.30;;
7211;SDS011;3647;48.792;9.802;2023-03-30T13:12:20;5.40;;;3.50;;
7211;SDS011;3647;48.792;9.802;2023-03-30T13:14:57;10.00;;;4.43;;
7211;SDS011;3647;48.792;9.802;2023-03-30T13:17:30;6.87;;;3.70;;
7211;SDS011;3647;48.792;9.802;2023-03-30T13:20:15;7.63;;;3.60;;
7211;SDS011;3647;48.792;9.802;2023-03-30T13:22:51;7.90;;;3.57;;
7211;SDS011;3647;48.792;9.802;2023-03-30T13:25:27;8.73;;;3.50;;
7211;SDS011;3647;48.792;9.802;2023-03-30T13:28:26;6.80;;;3.17;;
7211;SDS011;3647;48.792;9.802;2023-03-30T13:31:11;6.97;;;3.80;;
7211;SDS011;3647;48.792;9.802;2023-03-30T13:33:51;4.40;;;3.33;;
7211;SDS011;3647;48.792;9.802;2023-03-30T13:36:26;14.30;;;4.40;;
7211;SDS011;3647;48.792;9.802;2023-03-30T13:39:03;5.73;;;3.10;;
7211;SDS011;3647;48.792;9.802;2023-03-30T13:41:41;7.07;;;3.23;;
7211;SDS011;3647;48.792;9.802;2023-03-30T13:44:22;9.73;;;3.77;;
7211;SDS011;3647;48.792;9.802;2023-03-30T13:47:04;7.03;;;2.87;;
7211;SDS011;3647;48.792;9.802;2023-03-30T13:49:45;5.77;;;3.17;;
7211;SDS011;3647;48.792;9.802;2023-03-30T13:52:21;6.77;;;3.23;;
7211;SDS011;3647;48.792;9.802;2023-03-30T13:54:55;4.07;;;2.93;;
7211;SDS011;3647;48.792;9.802;2023-03-30T13:57:24;6.97;;;3.10;;
7211;SDS011;3647;48.792;9.802;2023-03-30T13:59:59;4.93;;;2.93;;
7211;SDS011;3647;48.792;9.802;2023-03-30T14:02:32;9.30;;;2.83;;
7211;SDS011;3647;48.792;9.802;2023-03-30T14:05:13;4.87;;;2.60;;
7211;SDS011;3647;48.792;9.802;2023-03-30T14:07:44;5.33;;;2.97;;
7211;SDS011;3647;48.792;9.802;2023-03-30T14:10:12;9.17;;;3.43;;
7211;SDS011;3647;48.792;9.802;2023-03-30T14:12:41;5.97;;;2.97;;
7211;SDS011;3647;48.792;9.802;2023-03-30T14:15:18;4.90;;;2.80;;
7211;SDS011;3647;48.792;9.802;2023-03-30T14:17:50;4.70;;;2.88;;
7211;SDS011;3647;48.792;9.802;2023-03-30T14:20:25;3.05;;;2.50;;
7211;SDS011;3647;48.792;9.802;2023-03-30T14:23:04;3.15;;;2.38;;
7211;SDS011;3647;48.792;9.802;2023-03-30T14:25:34;4.33;;;2.90;;
7211;SDS011;3647;48.792;9.802;2023-03-30T14:28:06;5.43;;;3.10;;
7211;SDS011;3647;48.792;9.802;2023-03-30T14:30:37;5.55;;;2.53;;
7211;SDS011;3647;48.792;9.802;2023-03-30T14:33:14;6.77;;;2.80;;
7211;SDS011;3647;48.792;9.802;2023-03-30T14:35:42;4.60;;;2.50;;
7211;SDS011;3647;48.792;9.802;2023-03-30T14:38:12;5.82;;;2.40;;
7211;SDS011;3647;48.792;9.802;2023-03-30T14:40:42;5.72;;;2.50;;
7211;SDS011;3647;48.792;9.802;2023-03-30T14:43:13;4.68;;;2.53;;
7211;SDS011;3647;48.792;9.802;2023-03-30T14:45:43;5.10;;;3.00;;
7211;SDS011;3647;48.792;9.802;2023-03-30T14:48:14;4.38;;;2.67;;
7211;SDS011;3647;48.792;9.802;2023-03-30T14:50:47;3.80;;;2.53;;
7211;SDS011;3647;48.792;9.802;2023-03-30T14:53:14;4.13;;;2.67;;
7211;SDS011;3647;48.792;9.802;2023-03-30T14:55:47;3.57;;;2.77;;
7211;SDS011;3647;48.792;9.802;2023-03-30T14:58:15;3.85;;;2.00;;
7211;SDS011;3647;48.792;9.802;2023-03-30T15:00:43;2.87;;;2.00;;
7211;SDS011;3647;48.792;9.802;2023-03-30T15:03:10;2.30;;;2.10;;
7211;SDS011;3647;48.792;9.802;2023-03-30T15:05:39;3.95;;;2.20;;
7211;SDS011;3647;48.792;9.802;2023-03-30T15:08:12;4.00;;;2.13;;
7211;SDS011;3647;48.792;9.802;2023-03-30T15:10:44;3.05;;;2.70;;
7211;SDS011;3647;48.792;9.802;2023-03-30T15:13:17;4.40;;;2.50;;
7211;SDS011;3647;48.792;9.802;2023-03-30T15:15:57;4.03;;;2.10;;
7211;SDS011;3647;48.792;9.802;2023-03-30T15:18:25;6.18;;;1.92;;
7211;SDS011;3647;48.792;9.802;2023-03-30T15:20:55;1.97;;;1.83;;
7211;SDS011;3647;48.792;9.802;2023-03-30T15:23:24;6.43;;;2.03;;
7211;SDS011;3647;48.792;9.802;2023-03-30T15:25:57;5.83;;;1.90;;
7211;SDS011;3647;48.792;9.802;2023-03-30T15:28:28;2.57;;;1.87;;
7211;SDS011;3647;48.792;9.802;2023-03-30T15:30:58;3.73;;;1.87;;
7211;SDS011;3647;48.792;9.802;2023-03-30T15:33:28;3.17;;;2.00;;
7211;SDS011;3647;48.792;9.802;2023-03-30T15:36:03;3.00;;;2.33;;
7211;SDS011;3647;48.792;9.802;2023-03-30T15:38:32;2.10;;;1.80;;
7211;SDS011;3647;48.792;9.802;2023-03-30T15:41:01;3.73;;;2.17;;
7211;SDS011;3647;48.792;9.802;2023-03-30T15:43:29;4.57;;;2.00;;
7211;SDS011;3647;48.792;9.802;2023-03-30T15:45:59;5.73;;;2.37;;
7211;SDS011;3647;48.792;9.802;2023-03-30T15:48:28;4.90;;;2.73;;
7211;SDS011;3647;48.792;9.802;2023-03-30T15:51:03;7.33;;;2.50;;
7211;SDS011;3647;48.792;9.802;2023-03-30T15:53:34;3.60;;;2.50;;
7211;SDS011;3647;48.792;9.802;2023-03-30T15:56:07;6.23;;;2.33;;
7211;SDS011;3647;48.792;9.802;2023-03-30T15:58:37;4.93;;;1.90;;
7211;SDS011;3647;48.792;9.802;2023-03-30T16:01:05;5.23;;;2.17;;
7211;SDS011;3647;48.792;9.802;2023-03-30T16:03:36;4.53;;;2.10;;
7211;SDS011;3647;48.792;9.802;2023-03-30T16:06:06;2.93;;;1.80;;
7211;SDS011;3647;48.792;9.802;2023-03-30T16:08:37;3.77;;;1.90;;
7211;SDS011;3647;48.792;9.802;2023-03-30T16:11:07;3.67;;;2.20;;
7211;SDS011;3647;48.792;9.802;2023-03-30T16:13:38;3.63;;;2.00;;
7211;SDS011;3647;48.792;9.802;2023-03-30T16:16:05;4.70;;;2.17;;
7211;SDS011;3647;48.792;9.802;2023-03-30T16:18:32;4.47;;;1.93;;
7211;SDS011;3647;48.792;9.802;2023-03-30T16:20:59;4.63;;;1.83;;
7211;SDS011;3647;48.792;9.802;2023-03-30T16:23:27;6.27;;;1.87;;
7211;SDS011;3647;48.792;9.802;2023-03-30T16:25:54;4.30;;;2.30;;
7211;SDS011;3647;48.792;9.802;2023-03-30T16:28:22;3.57;;;2.20;;
7211;SDS011;3647;48.792;9.802;2023-03-30T16:30:50;2.30;;;1.97;;
7211;SDS011;3647;48.792;9.802;2023-03-30T16:33:20;4.73;;;2.17;;
7211;SDS011;3647;48.792;9.802;2023-03-30T16:35:46;2.97;;;2.00;;
7211;SDS011;3647;48.792;9.802;2023-03-30T16:38:14;3.87;;;2.10;;
7211;SDS011;3647;48.792;9.802;2023-03-30T16:40:44;4.07;;;2.50;;
7211;SDS011;3647;48.792;9.802;2023-03-30T16:43:13;4.37;;;2.00;;
7211;SDS011;3647;48.792;9.802;2023-03-30T16:45:40;2.27;;;1.90;;
7211;SDS011;3647;48.792;9.802;2023-03-30T16:48:08;4.23;;;2.13;;
7211;SDS011;3647;48.792;9.802;2023-03-30T16:50:40;5.77;;;2.53;;
7211;SDS011;3647;48.792;9.802;2023-03-30T16:53:09;4.70;;;2.43;;
7211;SDS011;3647;48.792;9.802;2023-03-30T16:55:36;5.13;;;2.27;;
7211;SDS011;3647;48.792;9.802;2023-03-30T16:58:06;5.87;;;2.50;;
7211;SDS011;3647;48.792;9.802;2023-03-30T17:00:38;2.63;;;2.17;;
7211;SDS011;3647;48.792;9.802;2023-03-30T17:03:07;4.50;;;2.60;;
7211;SDS011;3647;48.792;9.802;2023-03-30T17:05:34;4.40;;;1.90;;
7211;SDS011;3647;48.792;9.802;2023-03-30T17:08:02;3.07;;;2.33;;
7211;SDS011;3647;48.792;9.802;2023-03-30T17:10:33;2.50;;;2.23;;
7211;SDS011;3647;48.792;9.802;2023-03-30T17:13:02;5.60;;;2.00;;
7211;SDS011;3647;48.792;9.802;2023-03-30T17:15:30;2.57;;;1.70;;
7211;SDS011;3647;48.792;9.802;2023-03-30T17:17:59;7.63;;;2.70;;
7211;SDS011;3647;48.792;9.802;2023-03-30T17:20:28;3.70;;;1.47;;
7211;SDS011;3647;48.792;9.802;2023-03-30T17:22:58;5.23;;;1.60;;
7211;SDS011;3647;48.792;9.802;2023-03-30T17:25:24;3.40;;;2.10;;
7211;SDS011;3647;48.792;9.802;2023-03-30T17:27:51;8.03;;;4.53;;
7211;SDS011;3647;48.792;9.802;2023-03-30T17:30:21;6.80;;;2.00;;
7211;SDS011;3647;48.792;9.802;2023-03-30T17:32:50;2.63;;;2.07;;
7211;SDS011;3647;48.792;9.802;2023-03-30T17:35:19;3.00;;;1.70;;
7211;SDS011;3647;48.792;9.802;2023-03-30T17:37:47;2.33;;;1.50;;
7211;SDS011;3647;48.792;9.802;2023-03-30T17:40:15;1.50;;;1.40;;
7211;SDS011;3647;48.792;9.802;2023-03-30T17:42:44;3.03;;;1.47;;
7211;SDS011;3647;48.792;9.802;2023-03-30T17:45:12;3.73;;;1.53;;
7211;SDS011;3647;48.792;9.802;2023-03-30T17:47:40;1.77;;;1.53;;
7211;SDS011;3647;48.792;9.802;2023-03-30T17:50:14;3.17;;;2.00;;
7211;SDS011;3647;48.792;9.802;2023-03-30T17:52:47;5.40;;;1.70;;
7211;SDS011;3647;48.792;9.802;2023-03-30T17:55:15;5.07;;;2.30;;
7211;SDS011;3647;48.792;9.802;2023-03-30T17:57:43;4.13;;;1.93;;
7211;SDS011;3647;48.792;9.802;2023-03-30T18:00:17;3.27;;;2.67;;
7211;SDS011;3647;48.792;9.802;2023-03-30T18:02:46;5.33;;;2.47;;
7211;SDS011;3647;48.792;9.802;2023-03-30T18:05:14;2.70;;;1.80;;
7211;SDS011;3647;48.792;9.802;2023-03-30T18:07:41;3.83;;;1.90;;
7211;SDS011;3647;48.792;9.802;2023-03-30T18:12:51;4.67;;;1.67;;
7211;SDS011;3647;48.792;9.802;2023-03-30T18:15:19;3.50;;;1.87;;
7211;SDS011;3647;48.792;9.802;2023-03-30T18:17:49;2.10;;;1.90;;
7211;SDS011;3647;48.792;9.802;2023-03-30T18:20:18;3.87;;;2.30;;
7211;SDS011;3647;48.792;9.802;2023-03-30T18:22:47;5.20;;;1.70;;
7211;SDS011;3647;48.792;9.802;2023-03-30T18:25:15;2.53;;;2.00;;
7211;SDS011;3647;48.792;9.802;2023-03-30T18:27:43;7.13;;;1.97;;
7211;SDS011;3647;48.792;9.802;2023-03-30T18:30:14;7.80;;;2.73;;
7211;SDS011;3647;48.792;9.802;2023-03-30T18:32:53;4.00;;;1.80;;
7211;SDS011;3647;48.792;9.802;2023-03-30T18:35:22;2.90;;;1.53;;
7211;SDS011;3647;48.792;9.802;2023-03-30T18:37:50;2.37;;;1.50;;
7211;SDS011;3647;48.792;9.802;2023-03-30T18:40:22;2.73;;;1.70;;
7211;SDS011;3647;48.792;9.802;2023-03-30T18:42:50;3.57;;;1.60;;
7211;SDS011;3647;48.792;9.802;2023-03-30T18:45:18;5.27;;;1.60;;
7211;SDS011;3647;48.792;9.802;2023-03-30T18:47:47;3.93;;;1.83;;
7211;SDS011;3647;48.792;9.802;2023-03-30T18:50:15;5.47;;;2.90;;
7211;SDS011;3647;48.792;9.802;2023-03-30T18:52:46;4.10;;;2.10;;
7211;SDS011;3647;48.792;9.802;2023-03-30T18:55:13;5.03;;;1.70;;
7211;SDS011;3647;48.792;9.802;2023-03-30T18:57:41;4.47;;;2.17;;
7211;SDS011;3647;48.792;9.802;2023-03-30T19:00:16;4.20;;;2.00;;
7211;SDS011;3647;48.792;9.802;2023-03-30T19:02:45;2.10;;;1.50;;
7211;SDS011;3647;48.792;9.802;2023-03-30T19:05:16;4.13;;;2.00;;
7211;SDS011;3647;48.792;9.802;2023-03-30T19:07:45;2.53;;;1.80;;
7211;SDS011;3647;48.792;9.802;2023-03-30T19:10:13;4.03;;;2.00;;
7211;SDS011;3647;48.792;9.802;2023-03-30T19:12:42;2.27;;;1.87;;
7211;SDS011;3647;48.792;9.802;2023-03-30T19:15:10;2.33;;;2.07;;
7211;SDS011;3647;48.792;9.802;2023-03-30T19:17:43;4.40;;;2.43;;
7211;SDS011;3647;48.792;9.802;2023-03-30T19:20:10;4.80;;;2.37;;
7211;SDS011;3647;48.792;9.802;2023-03-30T19:22:38;5.00;;;2.20;;
7211;SDS011;3647;48.792;9.802;2023-03-30T19:25:07;5.23;;;2.10;;
7211;SDS011;3647;48.792;9.802;2023-03-30T19:27:35;5.07;;;2.50;;
7211;SDS011;3647;48.792;9.802;2023-03-30T19:30:02;3.43;;;2.23;;
7211;SDS011;3647;48.792;9.802;2023-03-30T19:32:30;7.37;;;2.27;;
7211;SDS011;3647;48.792;9.802;2023-03-30T19:34:57;3.87;;;2.50;;
7211;SDS011;3647;48.792;9.802;2023-03-30T19:37:24;5.13;;;2.73;;
7211;SDS011;3647;48.792;9.802;2023-03-30T19:39:51;3.33;;;2.20;;
7211;SDS011;3647;48.792;9.802;2023-03-30T19:42:19;4.43;;;3.10;;
7211;SDS011;3647;48.792;9.802;2023-03-30T19:44:45;3.67;;;2.80;;
7211;SDS011;3647;48.792;9.802;2023-03-30T19:47:13;4.57;;;2.67;;
7211;SDS011;3647;48.792;9.802;2023-03-30T19:49:40;4.93;;;2.60;;
7211;SDS011;3647;48.792;9.802;2023-03-30T19:52:06;4.20;;;3.10;;
7211;SDS011;3647;48.792;9.802;2023-03-30T19:54:33;6.50;;;2.90;;
7211;SDS011;3647;48.792;9.802;2023-03-30T19:57:00;4.47;;;3.27;;
7211;SDS011;3647;48.792;9.802;2023-03-30T19:59:28;6.30;;;3.20;;
7211;SDS011;3647;48.792;9.802;2023-03-30T20:01:55;6.73;;;4.03;;
7211;SDS011;3647;48.792;9.802;2023-03-30T20:04:22;7.70;;;2.93;;
7211;SDS011;3647;48.792;9.802;2023-03-30T20:06:48;7.07;;;3.57;;
7211;SDS011;3647;48.792;9.802;2023-03-30T20:09:16;3.80;;;3.10;;
7211;SDS011;3647;48.792;9.802;2023-03-30T20:11:44;5.27;;;3.70;;
7211;SDS011;3647;48.792;9.802;2023-03-30T20:14:11;5.67;;;3.70;;
7211;SDS011;3647;48.792;9.802;2023-03-30T20:16:39;6.93;;;4.20;;
7211;SDS011;3647;48.792;9.802;2023-03-30T20:19:06;4.60;;;3.63;;
7211;SDS011;3647;48.792;9.802;2023-03-30T20:21:33;10.37;;;7.70;;
7211;SDS011;3647;48.792;9.802;2023-03-30T20:24:00;11.43;;;8.90;;
7211;SDS011;3647;48.792;9.802;2023-03-30T20:26:27;8.63;;;5.17;;
7211;SDS011;3647;48.792;9.802;2023-03-30T20:28:54;6.73;;;3.63;;
7211;SDS011;3647;48.792;9.802;2023-03-30T20:31:21;6.13;;;4.77;;
7211;SDS011;3647;48.792;9.802;2023-03-30T20:33:50;4.93;;;3.70;;
7211;SDS011;3647;48.792;9.802;2023-03-30T20:36:17;6.23;;;3.20;;
7211;SDS011;3647;48.792;9.802;2023-03-30T20:38:45;4.83;;;2.97;;
7211;SDS011;3647;48.792;9.802;2023-03-30T20:41:12;2.67;;;2.43;;
7211;SDS011;3647;48.792;9.802;2023-03-30T20:43:39;4.90;;;2.70;;
7211;SDS011;3647;48.792;9.802;2023-03-30T20:46:12;4.13;;;2.33;;
7211;SDS011;3647;48.792;9.802;2023-03-30T20:48:40;3.03;;;2.70;;
7211;SDS011;3647;48.792;9.802;2023-03-30T20:51:11;4.23;;;2.20;;
7211;SDS011;3647;48.792;9.802;2023-03-30T20:53:38;3.80;;;2.50;;
7211;SDS011;3647;48.792;9.802;2023-03-30T20:56:07;6.07;;;2.40;;
7211;SDS011;3647;48.792;9.802;2023-03-30T20:58:35;3.83;;;2.40;;
7211;SDS011;3647;48.792;9.802;2023-03-30T21:01:09;7.27;;;2.47;;
7211;SDS011;3647;48.792;9.802;2023-03-30T21:03:41;5.63;;;2.80;;
7211;SDS011;3647;48.792;9.802;2023-03-30T21:06:10;4.20;;;2.20;;
7211;SDS011;3647;48.792;9.802;2023-03-30T21:08:40;3.60;;;2.20;;
7211;SDS011;3647;48.792;9.802;2023-03-30T21:11:07;4.90;;;3.13;;
7211;SDS011;3647;48.792;9.802;2023-03-30T21:13:35;4.83;;;2.50;;
7211;SDS011;3647;48.792;9.802;2023-03-30T21:16:03;4.10;;;2.40;;
7211;SDS011;3647;48.792;9.802;2023-03-30T21:18:32;3.70;;;2.30;;
7211;SDS011;3647;48.792;9.802;2023-03-30T21:20:59;2.70;;;2.27;;
7211;SDS011;3647;48.792;9.802;2023-03-30T21:23:27;2.87;;;2.57;;
7211;SDS011;3647;48.792;9.802;2023-03-30T21:25:55;5.23;;;2.70;;